createdAt,value
2023-06-26T00:02:06.254Z,100757.38
2023-06-26T00:04:36.313Z,100754.00
2023-06-26T00:07:06.850Z,100754.97
2023-06-26T00:09:37.940Z,100762.00
2023-06-26T00:12:09.591Z,100769.28
2023-06-26T00:14:39.662Z,100764.06
2023-06-26T00:17:09.724Z,100761.66
2023-06-26T00:19:39.775Z,100764.06
2023-06-26T00:22:09.841Z,100766.84
2023-06-26T00:24:39.934Z,100763.75
2023-06-26T00:27:10.127Z,100767.44
2023-06-26T00:29:41.973Z,100768.28
2023-06-26T00:32:12.097Z,100766.50
2023-06-26T00:34:42.239Z,100760.97
2023-06-26T00:37:12.445Z,100763.28
2023-06-26T00:39:43.336Z,100764.41
2023-06-26T00:42:13.606Z,100762.44
2023-06-26T00:44:43.706Z,100765.03
2023-06-26T00:47:18.805Z,100765.38
2023-06-26T00:49:49.254Z,100765.69
2023-06-26T00:52:20.259Z,100759.84
2023-06-26T00:54:50.959Z,100771.22
2023-06-26T00:57:21.951Z,100769.59
2023-06-26T00:59:52.995Z,100773.19
2023-06-26T01:02:25.437Z,100762.59
2023-06-26T01:04:56.623Z,100772.19
2023-06-26T01:07:27.858Z,100779.22
2023-06-26T01:09:57.591Z,100777.38
2023-06-26T01:12:28.649Z,100778.38
2023-06-26T01:14:58.757Z,100788.81
2023-06-26T01:17:30.654Z,100796.09
2023-06-26T01:20:10.268Z,100791.22
2023-06-26T01:22:49.380Z,100799.88
2023-06-26T01:25:33.824Z,100799.22
2023-06-26T01:28:04.805Z,100796.44
2023-06-26T01:30:36.668Z,100799.22
2023-06-26T01:33:08.705Z,100800.84
2023-06-26T01:35:39.096Z,100796.94
2023-06-26T01:38:23.280Z,100804.41
2023-06-26T01:40:54.313Z,100799.22
2023-06-26T01:43:58.056Z,100802.47
2023-06-26T01:46:55.583Z,100796.22
2023-06-26T01:50:02.862Z,100803.75
2023-06-26T01:53:05.498Z,100803.25
2023-06-26T01:55:59.303Z,100801.31
2023-06-26T01:58:32.936Z,100798.38
2023-06-26T02:01:03.725Z,100797.84
2023-06-26T02:03:36.133Z,100799.84
2023-06-26T02:06:06.696Z,100807.78
2023-06-26T02:08:36.838Z,100819.56
2023-06-26T02:11:06.994Z,100804.75
2023-06-26T02:13:37.016Z,100815.31
2023-06-26T02:16:07.374Z,100815.47
2023-06-26T02:18:37.688Z,100808.13
2023-06-26T02:21:09.189Z,100807.16
2023-06-26T02:23:39.359Z,100817.09
2023-06-26T02:26:09.593Z,100815.94
2023-06-26T02:28:39.759Z,100817.09
2023-06-26T02:31:09.981Z,100805.34
2023-06-26T02:33:40.089Z,100798.19
2023-06-26T02:36:10.219Z,100794.25
2023-06-26T02:38:40.417Z,100799.31
2023-06-26T02:41:10.521Z,100798.06
2023-06-26T02:43:40.632Z,100802.09
2023-06-26T02:46:10.788Z,100797.34
2023-06-26T02:48:40.804Z,100797.03
2023-06-26T02:51:11.913Z,100806.84
2023-06-26T02:53:41.954Z,100806.16
2023-06-26T02:56:12.590Z,100799.47
2023-06-26T02:58:42.868Z,100798.78
2023-06-26T03:01:13.782Z,100803.53
2023-06-26T03:03:45.511Z,100806.31
2023-06-26T03:06:19.749Z,100812.50
2023-06-26T03:08:49.889Z,100803.59
2023-06-26T03:11:19.944Z,100806.31
2023-06-26T03:13:50.610Z,100804.69
2023-06-26T03:16:22.492Z,100815.06
2023-06-26T03:18:52.655Z,100811.16
2023-06-26T03:21:22.823Z,100803.31
2023-06-26T03:23:53.154Z,100808.19
2023-06-26T03:26:23.329Z,100809.34
2023-06-26T03:28:53.451Z,100807.72
2023-06-26T03:31:24.166Z,100802.66
2023-06-26T03:33:54.360Z,100799.22
2023-06-26T03:36:24.656Z,100803.47
2023-06-26T03:39:00.167Z,100796.63
2023-06-26T03:41:30.708Z,100809.94
2023-06-26T03:44:01.236Z,100804.41
2023-06-26T03:46:37.428Z,100800.34
2023-06-26T03:49:09.930Z,100804.19
2023-06-26T03:51:41.774Z,100809.63
2023-06-26T03:54:11.845Z,100818.41
2023-06-26T03:56:41.996Z,100813.38
2023-06-26T03:59:12.203Z,100809.16
2023-06-26T04:01:42.384Z,100805.75
2023-06-26T04:04:12.789Z,100809.28
2023-06-26T04:06:43.083Z,100807.66
2023-06-26T04:09:13.309Z,100792.28
2023-06-26T04:11:43.528Z,100793.59
2023-06-26T04:14:13.651Z,100797.72
2023-06-26T04:16:43.741Z,100794.38
2023-06-26T04:19:14.885Z,100796.00
2023-06-26T04:21:44.983Z,100791.63
2023-06-26T04:24:15.922Z,100794.38
2023-06-26T04:26:46.155Z,100792.78
2023-06-26T04:29:16.260Z,100798.19
2023-06-26T04:31:50.355Z,100795.53
2023-06-26T04:34:20.440Z,100784.94
2023-06-26T04:36:51.433Z,100792.56
2023-06-26T04:39:21.648Z,100793.25
2023-06-26T04:41:52.678Z,100787.50
2023-06-26T04:44:23.653Z,100786.44
2023-06-26T04:46:55.343Z,100785.88
2023-06-26T04:49:25.398Z,100776.63
2023-06-26T04:51:56.593Z,100785.59
2023-06-26T04:54:26.776Z,100779.88
2023-06-26T04:56:56.917Z,100779.06
2023-06-26T04:59:27.379Z,100772.69
2023-06-26T05:01:57.509Z,100779.50
2023-06-26T05:04:28.139Z,100773.38
2023-06-26T05:06:58.302Z,100763.59
2023-06-26T05:09:28.571Z,100757.81
2023-06-26T05:11:58.880Z,100768.31
2023-06-26T05:14:28.952Z,100765.53
2023-06-26T05:16:59.136Z,100756.91
2023-06-26T05:19:30.642Z,100751.00
2023-06-26T05:22:01.467Z,100751.47
2023-06-26T05:24:32.749Z,100749.38
2023-06-26T05:27:02.645Z,100752.97
2023-06-26T05:29:38.019Z,100744.78
2023-06-26T05:32:09.610Z,100737.16
2023-06-26T05:34:40.365Z,100731.94
2023-06-26T05:37:11.607Z,100733.56
2023-06-26T05:39:41.501Z,100735.63
2023-06-26T05:42:12.229Z,100730.94
2023-06-26T05:44:42.359Z,100724.56
2023-06-26T05:47:12.669Z,100722.84
2023-06-26T05:49:42.998Z,100726.78
2023-06-26T05:52:13.982Z,100716.38
2023-06-26T05:54:44.390Z,100706.09
2023-06-26T05:57:17.999Z,100705.53
2023-06-26T05:59:48.592Z,100697.44
2023-06-26T06:02:18.665Z,100705.75
2023-06-26T06:04:48.829Z,100698.25
2023-06-26T06:07:19.256Z,100687.28
2023-06-26T06:09:49.456Z,100688.78
2023-06-26T06:12:19.654Z,100688.69
2023-06-26T06:14:49.851Z,100684.03
2023-06-26T06:17:20.053Z,100670.91
2023-06-26T06:19:50.196Z,100670.66
2023-06-26T06:22:21.054Z,100672.16
2023-06-26T06:24:53.075Z,100663.16
2023-06-26T06:27:23.182Z,100670.66
2023-06-26T06:29:53.252Z,100656.47
2023-06-26T06:32:23.478Z,100667.69
2023-06-26T06:34:53.622Z,100651.25
2023-06-26T06:37:23.692Z,100648.09
2023-06-26T06:39:53.800Z,100648.78
2023-06-26T06:42:23.846Z,100639.47
2023-06-26T06:44:53.974Z,100628.59
2023-06-26T06:47:24.069Z,100630.22
2023-06-26T06:49:54.412Z,100616.84
2023-06-26T06:52:24.547Z,100615.16
2023-06-26T06:54:59.476Z,100606.56
2023-06-26T06:57:29.678Z,100599.53
2023-06-26T06:59:59.828Z,100593.44
2023-06-26T07:02:29.909Z,100590.31
2023-06-26T07:04:59.974Z,100590.66
2023-06-26T07:07:34.650Z,100578.31
2023-06-26T07:10:11.280Z,100575.88
2023-06-26T07:12:41.502Z,100573.75
2023-06-26T07:15:12.113Z,100563.47
2023-06-26T07:17:43.120Z,100559.38
2023-06-26T07:20:18.563Z,100565.00
2023-06-26T07:22:49.288Z,100554.50
2023-06-26T07:25:19.432Z,100550.41
2023-06-26T07:27:49.467Z,100542.28
2023-06-26T07:30:19.588Z,100548.28
2023-06-26T07:32:49.896Z,100553.25
2023-06-26T07:35:20.548Z,100541.34
2023-06-26T07:37:50.743Z,100536.16
2023-06-26T07:40:21.169Z,100532.69
2023-06-26T07:42:51.454Z,100532.56
2023-06-26T07:45:21.670Z,100533.84
2023-06-26T07:47:51.860Z,100531.75
2023-06-26T07:50:25.816Z,100517.44
2023-06-26T07:52:56.663Z,100522.50
2023-06-26T07:55:26.749Z,100518.34
2023-06-26T07:57:58.640Z,100506.22
2023-06-26T08:00:29.718Z,100511.78
2023-06-26T08:02:59.975Z,100509.47
2023-06-26T08:05:30.525Z,100498.38
2023-06-26T08:08:00.673Z,100490.06
2023-06-26T08:10:30.908Z,100491.78
2023-06-26T08:13:01.887Z,100486.56
2023-06-26T08:15:32.237Z,100483.34
2023-06-26T08:18:02.407Z,100484.16
2023-06-26T08:20:33.253Z,100482.66
2023-06-26T08:23:03.349Z,100477.94
2023-06-26T08:25:33.438Z,100474.00
2023-06-26T08:28:03.499Z,100471.78
2023-06-26T08:30:33.689Z,100473.41
2023-06-26T08:33:03.882Z,100478.03
2023-06-26T08:35:34.038Z,100473.75
2023-06-26T08:38:04.140Z,100481.25
2023-06-26T08:40:35.748Z,100479.66
2023-06-26T08:43:07.704Z,100473.63
2023-06-26T08:45:38.828Z,100459.78
2023-06-26T08:48:11.061Z,100469.34
2023-06-26T08:50:42.798Z,100460.38
2023-06-26T08:53:43.686Z,100457.38
2023-06-26T08:56:17.575Z,100454.69
2023-06-26T08:58:49.274Z,100460.13
2023-06-26T09:01:21.024Z,100454.69
2023-06-26T09:03:51.457Z,100456.31
2023-06-26T09:06:21.979Z,100459.88
2023-06-26T09:08:52.152Z,100449.84
2023-06-26T09:11:22.374Z,100451.22
2023-06-26T09:13:52.878Z,100456.31
2023-06-26T09:16:30.267Z,100455.63
2023-06-26T09:19:00.591Z,100454.00
2023-06-26T09:21:30.837Z,100451.56
2023-06-26T09:24:02.131Z,100456.31
2023-06-26T09:26:32.799Z,100453.19
2023-06-26T09:29:03.040Z,100459.19
2023-06-26T09:31:41.470Z,100457.56
2023-06-26T09:34:13.746Z,100462.31
2023-06-26T09:36:45.895Z,100457.47
2023-06-26T09:39:17.862Z,100467.88
2023-06-26T09:41:48.556Z,100465.69
2023-06-26T09:44:18.818Z,100465.78
2023-06-26T09:46:50.267Z,100468.56
2023-06-26T09:49:20.534Z,100472.94
2023-06-26T09:51:52.683Z,100467.63
2023-06-26T09:54:25.919Z,100472.38
2023-06-26T09:56:56.099Z,100473.53
2023-06-26T09:59:27.525Z,100471.56
2023-06-26T10:02:03.790Z,100473.88
2023-06-26T10:04:34.435Z,100477.09
2023-06-26T10:07:10.276Z,100489.91
2023-06-26T10:09:46.377Z,100493.97
2023-06-26T10:12:28.036Z,100488.44
2023-06-26T10:15:01.221Z,100487.88
2023-06-26T10:17:39.130Z,100501.13
2023-06-26T10:20:13.805Z,100497.44
2023-06-26T10:22:49.629Z,100500.69
2023-06-26T10:25:25.179Z,100504.25
2023-06-26T10:27:59.782Z,100508.88
2023-06-26T10:30:34.916Z,100501.72
2023-06-26T10:33:06.918Z,100504.50
2023-06-26T10:35:37.433Z,100515.34
2023-06-26T10:38:07.929Z,100511.41
2023-06-26T10:40:54.921Z,100508.16
2023-06-26T10:43:33.570Z,100502.88
2023-06-26T10:46:03.950Z,100503.91
2023-06-26T10:48:34.119Z,100509.00
2023-06-26T10:51:18.713Z,100512.22
2023-06-26T10:53:57.638Z,100515.69
2023-06-26T10:56:47.127Z,100520.09
2023-06-26T10:59:31.923Z,100522.50
2023-06-26T11:02:10.853Z,100520.09
2023-06-26T11:04:49.497Z,100526.78
2023-06-26T11:07:25.826Z,100527.94
2023-06-26T11:10:14.379Z,100523.31
2023-06-26T11:12:51.607Z,100529.91
2023-06-26T11:15:23.731Z,100539.13
2023-06-26T11:17:54.493Z,100542.25
2023-06-26T11:20:24.856Z,100542.50
2023-06-26T11:22:58.151Z,100546.19
2023-06-26T11:25:28.563Z,100545.03
2023-06-26T11:27:59.076Z,100548.59
2023-06-26T11:30:30.924Z,100541.56
2023-06-26T11:33:14.226Z,100548.75
2023-06-26T11:35:44.583Z,100548.97
2023-06-26T11:38:14.906Z,100549.06
2023-06-26T11:40:45.151Z,100555.78
2023-06-26T11:43:15.571Z,100546.75
2023-06-26T11:45:45.771Z,100556.34
2023-06-26T11:48:16.472Z,100555.09
2023-06-26T11:50:47.732Z,100563.75
2023-06-26T11:53:22.230Z,100557.75
2023-06-26T11:55:52.397Z,100566.88
2023-06-26T11:58:22.673Z,100570.78
2023-06-26T12:00:56.488Z,100585.00
2023-06-26T12:03:28.297Z,100587.09
2023-06-26T12:05:59.597Z,100584.31
2023-06-26T12:08:30.556Z,100587.31
2023-06-26T12:11:01.022Z,100588.72
2023-06-26T12:13:32.720Z,100587.44
2023-06-26T12:16:03.067Z,100589.50
2023-06-26T12:18:39.790Z,100599.34
2023-06-26T12:21:10.328Z,100602.59
2023-06-26T12:23:44.026Z,100607.31
2023-06-26T12:26:24.583Z,100613.91
2023-06-26T12:28:54.736Z,100622.47
2023-06-26T12:31:25.774Z,100627.06
2023-06-26T12:33:56.432Z,100639.63
2023-06-26T12:36:26.921Z,100638.16
2023-06-26T12:38:58.327Z,100649.59
2023-06-26T12:41:28.951Z,100638.84
2023-06-26T12:44:01.916Z,100650.63
2023-06-26T12:46:41.855Z,100653.97
2023-06-26T12:50:20.858Z,100662.53
2023-06-26T12:52:51.282Z,100660.69
2023-06-26T12:55:21.692Z,100665.63
2023-06-26T12:57:52.159Z,100666.47
2023-06-26T13:00:22.646Z,100670.38
2023-06-26T13:02:52.889Z,100669.56
2023-06-26T13:05:23.331Z,100679.97
2023-06-26T13:07:53.744Z,100691.06
2023-06-26T13:10:25.096Z,100694.31
2023-06-26T13:12:55.245Z,100697.28
2023-06-26T13:15:25.580Z,100702.34
2023-06-26T13:17:55.890Z,100710.00
2023-06-26T13:20:26.439Z,100725.28
2023-06-26T13:22:57.830Z,100744.47
2023-06-26T13:25:28.262Z,100738.31
2023-06-26T13:27:58.688Z,100748.13
2023-06-26T13:30:29.574Z,100756.53
2023-06-26T13:32:59.753Z,100756.53
2023-06-26T13:35:30.005Z,100759.31
2023-06-26T13:38:00.367Z,100760.94
2023-06-26T13:40:30.558Z,100759.44
2023-06-26T13:43:00.713Z,100768.91
2023-06-26T13:45:32.093Z,100761.94
2023-06-26T13:48:02.478Z,100774.69
2023-06-26T13:50:52.329Z,100770.75
2023-06-26T13:53:23.766Z,100778.28
2023-06-26T13:55:54.064Z,100781.53
2023-06-26T13:58:27.982Z,100784.66
2023-06-26T14:00:58.329Z,100789.84
2023-06-26T14:03:29.769Z,100791.16
2023-06-26T14:06:00.201Z,100787.63
2023-06-26T14:08:30.446Z,100802.09
2023-06-26T14:11:00.836Z,100799.66
2023-06-26T14:13:31.278Z,100804.88
2023-06-26T14:16:01.942Z,100804.13
2023-06-26T14:18:32.323Z,100804.00
2023-06-26T14:21:02.483Z,100810.63
2023-06-26T14:23:32.778Z,100812.94
2023-06-26T14:26:03.027Z,100813.94
2023-06-26T14:28:33.302Z,100818.19
2023-06-26T14:31:03.482Z,100819.81
2023-06-26T14:33:33.704Z,100818.41
2023-06-26T14:36:04.047Z,100825.91
2023-06-26T14:38:34.377Z,100828.97
2023-06-26T14:41:04.628Z,100839.41
2023-06-26T14:43:35.503Z,100839.88
2023-06-26T14:46:06.189Z,100845.91
2023-06-26T14:48:36.815Z,100841.25
2023-06-26T14:51:07.390Z,100841.72
2023-06-26T14:53:37.682Z,100848.72
2023-06-26T14:56:09.462Z,100843.06
2023-06-26T14:58:39.768Z,100850.16
2023-06-26T15:01:10.804Z,100845.97
2023-06-26T15:03:41.420Z,100854.44
2023-06-26T15:06:12.110Z,100853.06
2023-06-26T15:08:42.537Z,100852.88
2023-06-26T15:11:12.969Z,100854.34
2023-06-26T15:13:43.312Z,100865.13
2023-06-26T15:16:13.763Z,100869.28
2023-06-26T15:18:45.483Z,100874.22
2023-06-26T15:21:15.665Z,100873.56
2023-06-26T15:23:46.591Z,100872.81
2023-06-26T15:26:17.409Z,100882.41
2023-06-26T15:28:47.798Z,100883.75
2023-06-26T15:31:18.304Z,100878.91
2023-06-26T15:33:49.124Z,100882.34
2023-06-26T15:36:19.466Z,100887.69
2023-06-26T15:38:50.346Z,100893.06
2023-06-26T15:41:20.629Z,100893.50
2023-06-26T15:43:50.977Z,100891.22
2023-06-26T15:46:21.546Z,100897.09
2023-06-26T15:48:51.902Z,100892.84
2023-06-26T15:51:22.307Z,100901.69
2023-06-26T15:53:52.665Z,100891.41
2023-06-26T15:56:23.436Z,100888.63
2023-06-26T15:58:53.787Z,100893.03
2023-06-26T16:01:24.422Z,100890.72
2023-06-26T16:03:54.601Z,100888.63
2023-06-26T16:06:24.991Z,100892.41
2023-06-26T16:08:56.432Z,100888.63
2023-06-26T16:11:26.761Z,100886.34
2023-06-26T16:13:58.661Z,100878.00
2023-06-26T16:16:29.027Z,100886.19
2023-06-26T16:18:59.430Z,100885.19
2023-06-26T16:21:30.428Z,100883.97
2023-06-26T16:24:00.755Z,100878.41
2023-06-26T16:26:31.102Z,100875.66
2023-06-26T16:29:01.408Z,100876.13
2023-06-26T16:31:31.841Z,100870.25
2023-06-26T16:34:02.226Z,100874.16
2023-06-26T16:36:32.597Z,100872.41
2023-06-26T16:39:04.731Z,100871.25
2023-06-26T16:41:35.205Z,100864.75
2023-06-26T16:44:05.369Z,100868.00
2023-06-26T16:46:35.782Z,100864.28
2023-06-26T16:49:06.182Z,100864.50
2023-06-26T16:51:36.505Z,100857.09
2023-06-26T16:54:06.949Z,100856.34
2023-06-26T16:56:37.321Z,100855.34
2023-06-26T16:59:07.681Z,100858.13
2023-06-26T17:01:38.142Z,100852.09
2023-06-26T17:04:09.297Z,100851.28
2023-06-26T17:06:39.476Z,100842.84
2023-06-26T17:09:09.797Z,100833.72
2023-06-26T17:11:40.014Z,100836.97
2023-06-26T17:14:10.337Z,100839.38
2023-06-26T17:16:40.650Z,100829.31
2023-06-26T17:19:11.054Z,100821.00
2023-06-26T17:21:41.334Z,100820.00
2023-06-26T17:24:12.821Z,100817.09
2023-06-26T17:26:46.829Z,100811.56
2023-06-26T17:29:17.126Z,100805.66
2023-06-26T17:31:47.869Z,100809.25
2023-06-26T17:34:18.360Z,100809.59
2023-06-26T17:36:48.679Z,100809.13
2023-06-26T17:39:19.009Z,100806.16
2023-06-26T17:41:49.310Z,100799.84
2023-06-26T17:44:19.665Z,100796.09
2023-06-26T17:46:50.893Z,100785.16
2023-06-26T17:49:20.829Z,100779.97
2023-06-26T17:51:51.716Z,100779.00
2023-06-26T17:54:23.425Z,100778.34
2023-06-26T17:56:53.749Z,100776.84
2023-06-26T17:59:24.086Z,100774.56
2023-06-26T18:01:54.668Z,100766.94
2023-06-26T18:04:25.238Z,100766.13
2023-06-26T18:06:55.697Z,100755.16
2023-06-26T18:09:26.014Z,100748.00
2023-06-26T18:11:56.416Z,100748.06
2023-06-26T18:14:26.655Z,100739.75
2023-06-26T18:16:57.057Z,100732.94
2023-06-26T18:19:27.478Z,100730.34
2023-06-26T18:21:57.809Z,100731.31
2023-06-26T18:24:28.168Z,100732.31
2023-06-26T18:26:58.476Z,100730.84
2023-06-26T18:29:28.821Z,100739.00
2023-06-26T18:31:59.050Z,100729.69
2023-06-26T18:34:29.299Z,100737.19
2023-06-26T18:37:02.596Z,100739.00
2023-06-26T18:39:33.190Z,100739.97
2023-06-26T18:42:03.949Z,100746.47
2023-06-26T18:44:34.160Z,100748.06
2023-06-26T18:47:04.899Z,100736.97
2023-06-26T18:49:35.240Z,100745.16
2023-06-26T18:52:05.673Z,100747.94
2023-06-26T18:54:36.028Z,100741.91
2023-06-26T18:57:06.497Z,100746.66
2023-06-26T18:59:36.832Z,100741.91
2023-06-26T19:02:07.358Z,100741.91
2023-06-26T19:04:37.812Z,100736.53
2023-06-26T19:07:08.529Z,100727.41
2023-06-26T19:09:38.830Z,100728.66
2023-06-26T19:12:09.685Z,100731.78
2023-06-26T19:14:40.081Z,100723.97
2023-06-26T19:17:13.536Z,100717.47
2023-06-26T19:19:43.845Z,100717.47
2023-06-26T19:22:14.277Z,100721.72
2023-06-26T19:24:44.579Z,100712.94
2023-06-26T19:27:14.741Z,100711.66
2023-06-26T19:29:44.849Z,100711.31
2023-06-26T19:32:15.140Z,100703.84
2023-06-26T19:34:45.329Z,100696.13
2023-06-26T19:37:15.793Z,100697.59
2023-06-26T19:39:46.059Z,100696.13
2023-06-26T19:42:16.466Z,100684.72
2023-06-26T19:44:47.431Z,100680.31
2023-06-26T19:47:17.797Z,100678.81
2023-06-26T19:49:48.099Z,100680.44
2023-06-26T19:52:20.289Z,100675.84
2023-06-26T19:54:50.607Z,100674.22
2023-06-26T19:57:20.907Z,100672.97
2023-06-26T19:59:51.278Z,100665.13
2023-06-26T20:02:21.629Z,100663.16
2023-06-26T20:04:51.907Z,100660.06
2023-06-26T20:07:22.362Z,100660.06
2023-06-26T20:09:52.687Z,100655.31
2023-06-26T20:12:22.889Z,100653.38
2023-06-26T20:14:53.153Z,100652.91
2023-06-26T20:17:23.441Z,100647.84
2023-06-26T20:19:53.847Z,100642.75
2023-06-26T20:22:24.083Z,100647.84
2023-06-26T20:24:54.328Z,100650.44
2023-06-26T20:27:24.582Z,100652.91
2023-06-26T20:29:54.811Z,100652.91
2023-06-26T20:32:26.799Z,100655.19
2023-06-26T20:34:58.563Z,100653.56
2023-06-26T20:37:28.789Z,100638.56
2023-06-26T20:39:59.293Z,100650.31
2023-06-26T20:42:30.063Z,100649.19
2023-06-26T20:45:01.104Z,100652.16
2023-06-26T20:47:36.680Z,100650.69
2023-06-26T20:50:07.423Z,100650.19
2023-06-26T20:52:47.367Z,100654.59
2023-06-26T20:55:17.950Z,100647.22
2023-06-26T20:57:48.152Z,100648.09
2023-06-26T21:00:18.912Z,100644.84
2023-06-26T21:02:49.237Z,100649.25
2023-06-26T21:05:19.408Z,100652.81
2023-06-26T21:07:49.678Z,100644.72
2023-06-26T21:10:22.261Z,100651.06
2023-06-26T21:12:52.397Z,100644.38
2023-06-26T21:15:22.697Z,100644.72
2023-06-26T21:17:52.860Z,100652.38
2023-06-26T21:20:23.689Z,100646.34
2023-06-26T21:22:54.368Z,100646.34
2023-06-26T21:25:25.027Z,100649.78
2023-06-26T21:27:55.734Z,100640.81
2023-06-26T21:30:26.012Z,100642.63
2023-06-26T21:32:56.251Z,100649.13
2023-06-26T21:35:41.476Z,100634.69
2023-06-26T21:38:13.110Z,100643.66
2023-06-26T21:40:43.306Z,100639.06
2023-06-26T21:43:15.157Z,100639.75
2023-06-26T21:45:47.304Z,100633.38
2023-06-26T21:48:17.490Z,100631.56
2023-06-26T21:50:48.361Z,100634.69
2023-06-26T21:53:18.728Z,100631.09
2023-06-26T21:55:48.899Z,100630.75
2023-06-26T21:58:19.301Z,100627.66
2023-06-26T22:00:49.707Z,100629.94
2023-06-26T22:03:19.957Z,100632.69
2023-06-26T22:05:50.219Z,100637.75
2023-06-26T22:08:20.477Z,100633.06
2023-06-26T22:10:50.636Z,100636.16
2023-06-26T22:13:21.176Z,100630.59
2023-06-26T22:15:51.470Z,100633.06
2023-06-26T22:18:22.239Z,100629.81
2023-06-26T22:20:53.095Z,100630.41
2023-06-26T22:23:23.330Z,100634.53
2023-06-26T22:25:53.434Z,100631.91
2023-06-26T22:28:23.708Z,100626.81
2023-06-26T22:30:53.883Z,100630.41
2023-06-26T22:33:24.111Z,100633.19
2023-06-26T22:35:55.581Z,100640.22
2023-06-26T22:38:25.825Z,100638.25
2023-06-26T22:40:56.047Z,100638.91
2023-06-26T22:43:27.328Z,100638.72
2023-06-26T22:45:57.141Z,100644.59
2023-06-26T22:48:27.548Z,100636.81
2023-06-26T22:50:58.674Z,100641.56
2023-06-26T22:55:25.501Z,100645.75
2023-06-26T22:57:56.222Z,100648.59
2023-06-26T23:00:26.461Z,100648.59
2023-06-26T23:03:02.309Z,100653.78
2023-06-26T23:05:33.958Z,100658.22
2023-06-26T23:08:06.036Z,100656.06
2023-06-26T23:10:37.437Z,100662.81
2023-06-26T23:13:07.715Z,100666.88
2023-06-26T23:15:42.608Z,100676.09
2023-06-26T23:18:12.941Z,100682.94
2023-06-26T23:20:45.801Z,100682.00
2023-06-26T23:23:16.794Z,100683.28
2023-06-26T23:25:47.068Z,100691.91
2023-06-26T23:28:17.350Z,100691.91
2023-06-26T23:30:47.673Z,100695.16
2023-06-26T23:33:22.241Z,100688.31
2023-06-26T23:35:53.080Z,100694.34
2023-06-26T23:38:23.262Z,100699.88
2023-06-26T23:40:53.503Z,100707.69
2023-06-26T23:43:27.468Z,100708.88
2023-06-26T23:45:57.678Z,100708.66
2023-06-26T23:48:28.197Z,100719.59
2023-06-26T23:50:58.545Z,100717.31
2023-06-26T23:53:28.775Z,100727.44
2023-06-26T23:55:59.032Z,100731.16
2023-06-26T23:58:31.091Z,100742.22
